createdAt,value
2017-09-28T00:00:30.446Z,19.33
2017-09-28T00:02:57.872Z,19.27
2017-09-28T00:05:25.303Z,16.40
2017-09-28T00:07:52.796Z,17.40
2017-09-28T00:10:20.247Z,17.97
2017-09-28T00:12:47.797Z,16.77
2017-09-28T00:15:15.223Z,18.07
2017-09-28T00:17:42.652Z,18.17
2017-09-28T00:20:10.092Z,19.80
2017-09-28T00:22:37.519Z,16.53
2017-09-28T00:25:04.953Z,18.43
2017-09-28T00:27:32.395Z,17.07
2017-09-28T00:29:59.990Z,17.67
2017-09-28T00:32:27.428Z,18.70
2017-09-28T00:34:54.898Z,16.83
2017-09-28T00:37:22.328Z,19.40
2017-09-28T00:39:49.756Z,20.37
2017-09-28T00:42:17.296Z,18.50
2017-09-28T00:44:44.728Z,15.63
2017-09-28T00:47:12.170Z,16.67
2017-09-28T00:49:39.599Z,17.90
2017-09-28T00:52:07.048Z,17.33
2017-09-28T00:54:34.536Z,16.40
2017-09-28T00:57:01.992Z,15.50
2017-09-28T00:59:29.426Z,16.83
2017-09-28T01:01:56.908Z,16.57
2017-09-28T01:04:24.338Z,16.40
2017-09-28T01:06:51.820Z,16.23
2017-09-28T01:09:19.283Z,17.37
2017-09-28T01:11:46.749Z,18.07
2017-09-28T01:14:14.174Z,15.50
2017-09-28T01:16:41.620Z,15.53
2017-09-28T01:19:09.048Z,16.87
2017-09-28T01:21:36.566Z,21.23
2017-09-28T01:24:03.997Z,15.57
2017-09-28T01:26:31.478Z,17.83
2017-09-28T01:28:58.907Z,18.00
2017-09-28T01:31:26.351Z,16.70
2017-09-28T01:33:53.836Z,18.20
2017-09-28T01:36:21.298Z,20.23
2017-09-28T01:38:48.735Z,16.67
2017-09-28T01:41:16.216Z,15.23
2017-09-28T01:43:43.647Z,15.90
2017-09-28T01:46:11.077Z,17.00
2017-09-28T01:48:38.523Z,17.20
2017-09-28T01:51:05.947Z,17.67
2017-09-28T01:53:33.491Z,17.03
2017-09-28T01:56:00.950Z,17.90
2017-09-28T01:58:28.607Z,15.77
2017-09-28T02:00:56.044Z,19.13
2017-09-28T02:03:23.535Z,16.60
2017-09-28T02:05:51.092Z,16.07
2017-09-28T02:08:18.731Z,19.33
2017-09-28T02:10:46.160Z,17.63
2017-09-28T02:13:14.577Z,18.87
2017-09-28T02:15:41.985Z,17.53
2017-09-28T02:18:10.188Z,18.57
2017-09-28T02:20:37.616Z,15.67
2017-09-28T02:23:05.129Z,16.20
2017-09-28T02:25:32.558Z,16.83
2017-09-28T02:28:00.030Z,17.30
2017-09-28T02:30:27.484Z,17.20
2017-09-28T02:32:54.908Z,16.90
2017-09-28T02:35:22.343Z,17.27
2017-09-28T02:37:49.793Z,18.30
2017-09-28T02:40:17.312Z,17.03
2017-09-28T02:42:44.766Z,17.70
2017-09-28T02:45:12.209Z,18.67
2017-09-28T02:47:39.632Z,21.80
2017-09-28T02:50:07.141Z,18.45
2017-09-28T02:52:34.899Z,17.87
2017-09-28T02:55:02.353Z,19.40
2017-09-28T02:57:29.799Z,18.77
2017-09-28T02:59:57.272Z,20.30
2017-09-28T03:02:24.930Z,18.83
2017-09-28T03:04:52.364Z,19.27
2017-09-28T03:07:19.856Z,18.77
2017-09-28T03:09:47.296Z,19.23
2017-09-28T03:12:14.727Z,17.93
2017-09-28T03:14:42.307Z,18.10
2017-09-28T03:17:09.973Z,18.50
2017-09-28T03:19:37.413Z,19.20
2017-09-28T03:22:04.943Z,17.00
2017-09-28T03:24:32.371Z,19.67
2017-09-28T03:26:59.904Z,21.87
2017-09-28T03:29:27.352Z,20.00
2017-09-28T03:31:54.785Z,18.70
2017-09-28T03:34:22.312Z,18.70
2017-09-28T03:36:50.045Z,19.80
2017-09-28T03:39:17.479Z,21.23
2017-09-28T03:41:44.944Z,18.93
2017-09-28T03:44:12.403Z,18.87
2017-09-28T03:46:40.165Z,18.50
2017-09-28T03:49:07.629Z,18.53
2017-09-28T03:51:35.054Z,18.07
2017-09-28T03:54:02.545Z,19.50
2017-09-28T03:56:29.981Z,23.63
2017-09-28T03:58:57.400Z,22.93
2017-09-28T04:01:24.835Z,19.40
2017-09-28T04:03:52.270Z,18.10
2017-09-28T04:06:19.711Z,19.90
2017-09-28T04:08:47.140Z,20.73
2017-09-28T04:11:14.575Z,20.30
2017-09-28T04:13:42.796Z,20.13
2017-09-28T04:16:10.245Z,17.40
2017-09-28T04:18:37.883Z,18.60
2017-09-28T04:21:05.347Z,21.27
2017-09-28T04:23:32.932Z,18.37
2017-09-28T04:26:00.364Z,17.43
2017-09-28T04:28:27.852Z,17.90
2017-09-28T04:30:55.299Z,20.70
2017-09-28T04:33:22.768Z,19.55
2017-09-28T04:35:50.187Z,20.30
2017-09-28T04:38:17.677Z,17.63
2017-09-28T04:40:45.319Z,18.43
2017-09-28T04:43:12.798Z,18.95
2017-09-28T04:45:40.348Z,21.30
2017-09-28T04:48:07.814Z,18.43
2017-09-28T04:50:35.448Z,18.40
2017-09-28T04:53:02.936Z,18.83
2017-09-28T04:55:30.468Z,17.30
2017-09-28T04:57:57.927Z,19.90
2017-09-28T05:00:25.352Z,18.23
2017-09-28T05:02:52.792Z,18.87
2017-09-28T05:05:20.227Z,18.60
2017-09-28T05:07:47.703Z,17.53
2017-09-28T05:10:15.211Z,18.53
2017-09-28T05:12:42.659Z,18.27
2017-09-28T05:15:10.111Z,17.30
2017-09-28T05:17:38.547Z,22.63
2017-09-28T05:20:06.149Z,19.77
2017-09-28T05:22:33.617Z,23.87
2017-09-28T05:25:02.018Z,20.20
2017-09-28T05:27:29.459Z,21.27
2017-09-28T05:29:56.887Z,20.00
2017-09-28T05:32:24.391Z,22.10
2017-09-28T05:34:51.827Z,18.50
2017-09-28T05:37:19.590Z,20.77
2017-09-28T05:39:46.995Z,18.40
2017-09-28T05:42:14.500Z,22.10
2017-09-28T05:44:41.938Z,18.63
2017-09-28T05:47:09.459Z,22.30
2017-09-28T05:49:37.815Z,22.60
2017-09-28T05:52:05.259Z,20.67
2017-09-28T05:54:32.805Z,25.50
2017-09-28T05:57:00.262Z,24.17
2017-09-28T05:59:27.696Z,23.30
2017-09-28T06:01:55.125Z,22.50
2017-09-28T06:04:22.555Z,22.10
2017-09-28T06:06:49.996Z,22.13
2017-09-28T06:09:17.544Z,26.00
2017-09-28T06:11:45.007Z,22.57
2017-09-28T06:14:12.457Z,23.53
2017-09-28T06:16:39.886Z,21.50
2017-09-28T06:19:07.330Z,21.43
2017-09-28T06:21:34.750Z,24.93
2017-09-28T06:24:02.292Z,22.23
2017-09-28T06:26:29.720Z,21.90
2017-09-28T06:28:57.200Z,22.30
2017-09-28T06:31:24.661Z,25.20
2017-09-28T06:33:52.312Z,23.47
2017-09-28T06:36:19.727Z,22.33
2017-09-28T06:38:48.144Z,23.40
2017-09-28T06:41:15.577Z,21.43
2017-09-28T06:43:43.080Z,21.60
2017-09-28T06:46:10.618Z,20.37
2017-09-28T06:48:38.046Z,21.50
2017-09-28T06:51:05.531Z,27.13
2017-09-28T06:53:32.960Z,24.27
2017-09-28T06:56:00.391Z,22.40
2017-09-28T06:58:27.820Z,22.07
2017-09-28T07:00:55.363Z,21.87
2017-09-28T07:03:22.824Z,22.53
2017-09-28T07:05:50.299Z,21.33
2017-09-28T07:08:17.904Z,22.63
2017-09-28T07:10:45.379Z,24.63
2017-09-28T07:13:12.942Z,25.10
2017-09-28T07:15:40.400Z,27.03
2017-09-28T07:18:07.831Z,23.40
2017-09-28T07:20:35.263Z,23.93
2017-09-28T07:23:02.779Z,28.83
2017-09-28T07:25:30.227Z,31.90
2017-09-28T07:27:57.685Z,24.13
2017-09-28T07:30:25.119Z,23.93
2017-09-28T07:32:52.553Z,23.83
2017-09-28T07:35:20.051Z,27.30
2017-09-28T07:37:47.513Z,25.67
2017-09-28T07:40:14.941Z,29.63
2017-09-28T07:42:42.372Z,24.97
2017-09-28T07:45:09.879Z,27.60
2017-09-28T07:47:37.519Z,27.67
2017-09-28T07:50:05.104Z,28.60
2017-09-28T07:52:32.749Z,28.30
2017-09-28T07:55:00.360Z,31.07
2017-09-28T07:57:28.568Z,28.47
2017-09-28T07:59:56.156Z,32.77
2017-09-28T08:02:23.612Z,26.53
2017-09-28T08:04:51.379Z,29.93
2017-09-28T08:07:19.706Z,31.33
2017-09-28T08:09:47.213Z,35.17
2017-09-28T08:12:15.287Z,29.20
2017-09-28T08:14:43.169Z,29.63
2017-09-28T08:17:10.812Z,30.80
2017-09-28T08:19:38.457Z,29.33
2017-09-28T08:22:06.019Z,28.50
2017-09-28T08:24:33.451Z,28.50
2017-09-28T08:27:00.875Z,27.90
2017-09-28T08:29:28.337Z,28.50
2017-09-28T08:31:55.765Z,32.87
2017-09-28T08:34:23.308Z,27.93
2017-09-28T08:36:50.735Z,27.47
2017-09-28T08:39:18.176Z,31.10
2017-09-28T08:41:45.676Z,26.90
2017-09-28T08:44:13.137Z,27.77
2017-09-28T08:46:40.782Z,26.07
2017-09-28T08:49:08.205Z,27.57
2017-09-28T08:51:36.413Z,27.77
2017-09-28T08:54:03.834Z,31.03
2017-09-28T08:56:31.266Z,28.70
2017-09-28T08:58:58.786Z,26.30
2017-09-28T09:01:26.216Z,27.40
2017-09-28T09:03:53.711Z,30.97
2017-09-28T09:06:21.464Z,27.50
2017-09-28T09:08:48.902Z,29.60
2017-09-28T09:11:16.380Z,25.97
2017-09-28T09:13:43.823Z,33.30
2017-09-28T09:16:11.285Z,27.83
2017-09-28T09:18:38.757Z,27.73
2017-09-28T09:21:06.214Z,27.93
2017-09-28T09:23:33.653Z,28.30
2017-09-28T09:26:01.126Z,28.20
2017-09-28T09:28:28.572Z,30.20
2017-09-28T09:30:56.127Z,30.93
2017-09-28T09:33:23.788Z,33.17
2017-09-28T09:35:51.245Z,28.20
2017-09-28T09:38:18.684Z,30.73
2017-09-28T09:40:46.110Z,28.00
2017-09-28T09:43:13.536Z,28.83
2017-09-28T09:45:40.985Z,27.43
2017-09-28T09:48:08.438Z,30.67
2017-09-28T09:50:35.909Z,29.37
2017-09-28T09:53:03.416Z,30.30
2017-09-28T09:55:30.902Z,31.83
2017-09-28T09:57:58.332Z,30.43
2017-09-28T10:00:25.760Z,31.10
2017-09-28T10:02:53.207Z,32.00
2017-09-28T10:05:20.679Z,30.27
2017-09-28T10:07:53.447Z,31.57
2017-09-28T10:10:35.424Z,34.83
2017-09-28T10:13:13.338Z,30.20
2017-09-28T10:15:46.292Z,35.33
2017-09-28T10:18:13.720Z,31.67
2017-09-28T10:20:41.148Z,30.77
2017-09-28T10:23:08.773Z,31.67
2017-09-28T10:25:36.223Z,31.70
2017-09-28T10:28:03.664Z,31.53
2017-09-28T10:30:31.095Z,30.70
2017-09-28T10:32:58.608Z,32.00
2017-09-28T10:35:26.073Z,31.67
2017-09-28T10:37:53.514Z,28.83
2017-09-28T10:40:20.983Z,33.70
2017-09-28T10:42:48.411Z,31.03
2017-09-28T10:45:15.968Z,31.23
2017-09-28T10:47:43.589Z,32.00
2017-09-28T10:50:11.779Z,31.13
2017-09-28T10:52:39.258Z,29.50
2017-09-28T10:55:06.799Z,26.43
2017-09-28T10:57:34.383Z,29.43
2017-09-28T11:00:01.828Z,28.70
2017-09-28T11:02:29.393Z,28.70
2017-09-28T11:04:57.043Z,26.75
2017-09-28T11:07:24.608Z,28.57
2017-09-28T11:09:52.364Z,28.50
2017-09-28T11:12:19.797Z,25.57
2017-09-28T11:14:47.233Z,28.80
2017-09-28T11:17:14.669Z,27.77
2017-09-28T11:19:42.116Z,29.23
2017-09-28T11:22:09.609Z,26.57
2017-09-28T11:24:37.023Z,29.07
2017-09-28T11:27:04.464Z,31.30
2017-09-28T11:29:32.028Z,28.40
2017-09-28T11:31:59.477Z,26.27
2017-09-28T11:34:26.948Z,25.37
2017-09-28T11:36:54.704Z,23.10
2017-09-28T11:39:22.164Z,24.60
2017-09-28T11:41:49.808Z,25.27
2017-09-28T11:44:17.289Z,20.70
2017-09-28T11:46:44.747Z,23.00
2017-09-28T11:49:12.195Z,21.13
2017-09-28T11:51:39.603Z,22.57
2017-09-28T11:54:07.995Z,24.13
2017-09-28T11:56:35.489Z,24.97
2017-09-28T11:59:03.041Z,24.30
2017-09-28T12:01:30.482Z,23.70
2017-09-28T12:03:57.929Z,22.07
2017-09-28T12:06:25.395Z,20.27
2017-09-28T12:08:52.845Z,20.87
2017-09-28T12:11:20.267Z,21.73
2017-09-28T12:13:47.763Z,19.70
2017-09-28T12:16:15.197Z,20.33
2017-09-28T12:18:42.632Z,18.67
2017-09-28T12:21:10.115Z,14.30
2017-09-28T12:23:37.560Z,15.57
2017-09-28T12:26:04.976Z,16.40
2017-09-28T12:28:32.429Z,17.17
2017-09-28T12:30:59.959Z,19.07
2017-09-28T12:33:27.391Z,16.67
2017-09-28T12:35:54.873Z,14.00
2017-09-28T12:38:22.587Z,15.37
2017-09-28T12:40:50.018Z,14.73
2017-09-28T12:43:17.462Z,17.43
2017-09-28T12:45:44.904Z,16.00
2017-09-28T12:48:12.541Z,16.10
2017-09-28T12:50:39.956Z,16.53
2017-09-28T12:53:07.684Z,13.60
2017-09-28T12:55:35.331Z,13.60
2017-09-28T12:58:02.773Z,13.40
2017-09-28T13:00:30.304Z,13.63
2017-09-28T13:02:57.727Z,13.27
2017-09-28T13:05:25.284Z,12.93
2017-09-28T13:07:52.722Z,12.43
2017-09-28T13:10:20.187Z,12.07
2017-09-28T13:12:47.619Z,12.13
2017-09-28T13:15:15.092Z,11.43
2017-09-28T13:17:42.552Z,11.10
2017-09-28T13:20:09.961Z,12.30
2017-09-28T13:22:37.399Z,10.93
2017-09-28T13:25:04.917Z,10.10
2017-09-28T13:27:32.357Z,11.83
2017-09-28T13:29:59.801Z,10.93
2017-09-28T13:32:27.238Z,11.43
2017-09-28T13:34:54.655Z,11.87
2017-09-28T13:37:22.196Z,11.27
2017-09-28T13:39:49.641Z,11.40
2017-09-28T13:42:17.095Z,10.43
2017-09-28T13:44:44.504Z,13.40
2017-09-28T13:47:11.948Z,11.27
2017-09-28T13:49:39.371Z,12.67
2017-09-28T13:52:06.860Z,11.73
2017-09-28T13:54:34.400Z,12.07
2017-09-28T13:57:02.052Z,13.13
2017-09-28T13:59:29.483Z,10.57
2017-09-28T14:01:57.072Z,11.67
2017-09-28T14:04:24.523Z,11.83
2017-09-28T14:06:52.002Z,12.37
2017-09-28T14:09:19.743Z,11.03
2017-09-28T14:11:47.204Z,12.00
2017-09-28T14:14:14.664Z,11.80
2017-09-28T14:16:42.088Z,9.30
2017-09-28T14:19:09.512Z,9.17
2017-09-28T14:21:37.024Z,9.77
2017-09-28T14:24:04.460Z,9.47
2017-09-28T14:26:31.864Z,8.53
2017-09-28T14:28:59.287Z,8.63
2017-09-28T14:31:26.846Z,10.80
2017-09-28T14:33:54.311Z,9.97
2017-09-28T14:36:21.768Z,9.27
2017-09-28T14:38:49.179Z,9.70
2017-09-28T14:41:16.675Z,8.77
2017-09-28T14:43:44.098Z,10.50
2017-09-28T14:46:12.308Z,9.87
2017-09-28T14:48:39.886Z,9.40
2017-09-28T14:51:07.309Z,10.30
2017-09-28T14:53:34.951Z,9.60
2017-09-28T14:56:02.366Z,9.13
2017-09-28T14:58:29.973Z,9.37
2017-09-28T15:00:57.817Z,9.87
2017-09-28T15:03:25.241Z,9.27
2017-09-28T15:05:52.804Z,9.20
2017-09-28T15:08:21.007Z,11.00
2017-09-28T15:10:48.571Z,9.63
2017-09-28T15:13:16.023Z,10.40
2017-09-28T15:15:44.236Z,11.07
2017-09-28T15:18:11.779Z,8.80
2017-09-28T15:20:39.360Z,10.30
2017-09-28T15:23:06.812Z,13.00
2017-09-28T15:25:34.271Z,11.63
2017-09-28T15:28:02.039Z,11.17
2017-09-28T15:30:29.477Z,11.00
2017-09-28T15:32:56.952Z,10.55
2017-09-28T15:35:24.595Z,10.87
2017-09-28T15:37:52.066Z,10.93
2017-09-28T15:40:20.565Z,13.60
2017-09-28T15:42:48.005Z,11.10
2017-09-28T15:45:15.435Z,10.20
2017-09-28T15:47:43.755Z,10.45
2017-09-28T15:50:11.232Z,13.90
2017-09-28T15:52:38.696Z,9.83
2017-09-28T15:55:06.217Z,10.87
2017-09-28T15:57:33.757Z,10.47
2017-09-28T16:00:01.285Z,10.40
2017-09-28T16:02:29.529Z,10.63
2017-09-28T16:04:57.124Z,8.60
2017-09-28T16:07:24.747Z,9.40
2017-09-28T16:09:52.196Z,11.20
2017-09-28T16:12:19.603Z,10.23
2017-09-28T16:14:47.035Z,8.70
2017-09-28T16:17:14.537Z,9.67
2017-09-28T16:19:42.318Z,10.10
2017-09-28T16:22:09.753Z,9.13
2017-09-28T16:24:37.272Z,10.40
2017-09-28T16:27:04.852Z,9.47
2017-09-28T16:29:32.437Z,9.27
2017-09-28T16:31:59.897Z,9.67
2017-09-28T16:34:27.350Z,9.87
2017-09-28T16:36:54.805Z,9.20
2017-09-28T16:39:22.253Z,11.10
2017-09-28T16:41:49.668Z,9.33
2017-09-28T16:44:17.389Z,8.57
2017-09-28T16:46:44.925Z,9.87
2017-09-28T16:49:12.392Z,8.63
2017-09-28T16:51:39.842Z,8.83
2017-09-28T16:54:07.605Z,8.77
2017-09-28T16:56:35.031Z,9.23
2017-09-28T16:59:02.517Z,8.30
2017-09-28T17:01:29.953Z,8.90
2017-09-28T17:03:57.359Z,8.57
2017-09-28T17:06:24.889Z,9.70
2017-09-28T17:08:52.305Z,9.00
2017-09-28T17:11:19.733Z,13.83
2017-09-28T17:13:47.266Z,9.00
2017-09-28T17:16:14.681Z,9.33
2017-09-28T17:18:42.164Z,8.47
2017-09-28T17:21:09.644Z,10.70
2017-09-28T17:23:37.077Z,10.23
2017-09-28T17:26:04.501Z,10.70
2017-09-28T17:28:31.933Z,9.47
2017-09-28T17:30:59.355Z,10.10
2017-09-28T17:33:26.819Z,9.53
2017-09-28T17:35:54.260Z,12.73
2017-09-28T17:38:21.902Z,9.37
2017-09-28T17:40:49.583Z,12.23
2017-09-28T17:43:17.045Z,14.27
2017-09-28T17:45:44.451Z,13.43
2017-09-28T17:48:11.871Z,12.70
2017-09-28T17:50:39.404Z,14.37
2017-09-28T17:53:06.868Z,8.83
2017-09-28T17:55:34.287Z,9.80
2017-09-28T17:58:01.777Z,14.40
2017-09-28T18:00:29.220Z,12.20
2017-09-28T18:02:56.639Z,12.70
2017-09-28T18:05:24.145Z,12.33
2017-09-28T18:07:51.567Z,10.53
2017-09-28T18:10:19.085Z,10.40
2017-09-28T18:12:48.121Z,11.20
2017-09-28T18:15:15.816Z,12.53
2017-09-28T18:17:43.235Z,9.80
2017-09-28T18:20:10.728Z,12.23
2017-09-28T18:22:38.188Z,13.33
2017-09-28T18:25:05.644Z,12.10
2017-09-28T18:27:33.104Z,10.63
2017-09-28T18:30:00.516Z,11.43
2017-09-28T18:32:27.943Z,10.93
2017-09-28T18:34:57.829Z,12.93
2017-09-28T18:37:26.172Z,11.23
2017-09-28T18:39:53.751Z,13.03
2017-09-28T18:42:21.176Z,9.83
2017-09-28T18:44:48.587Z,10.57
2017-09-28T18:47:16.019Z,9.57
2017-09-28T18:49:43.500Z,10.83
2017-09-28T18:52:10.934Z,10.30
2017-09-28T18:54:38.490Z,12.00
2017-09-28T18:57:05.907Z,14.60
2017-09-28T18:59:33.391Z,9.90
2017-09-28T19:02:01.579Z,14.50
2017-09-28T19:04:29.121Z,15.47
2017-09-28T19:06:56.539Z,13.83
2017-09-28T19:09:24.049Z,11.83
2017-09-28T19:11:51.559Z,12.00
2017-09-28T19:14:19.076Z,10.63
2017-09-28T19:16:46.495Z,13.23
2017-09-28T19:19:13.935Z,12.10
2017-09-28T19:21:41.736Z,12.40
2017-09-28T19:24:09.206Z,13.23
2017-09-28T19:26:36.699Z,14.23
2017-09-28T19:29:04.119Z,10.83
2017-09-28T19:31:31.552Z,10.43
2017-09-28T19:33:58.968Z,11.60
2017-09-28T19:36:26.409Z,11.00
2017-09-28T19:38:53.829Z,13.23
2017-09-28T19:41:21.288Z,10.57
2017-09-28T19:43:48.717Z,11.33
2017-09-28T19:46:16.216Z,13.37
2017-09-28T19:48:43.756Z,12.43
2017-09-28T19:51:11.239Z,13.30
2017-09-28T19:53:38.678Z,12.90
2017-09-28T19:56:06.104Z,12.40
2017-09-28T19:58:33.542Z,11.77
2017-09-28T20:01:00.969Z,14.20
2017-09-28T20:03:28.417Z,12.60
2017-09-28T20:05:55.835Z,10.23
2017-09-28T20:08:23.317Z,13.00
2017-09-28T20:10:50.811Z,13.13
2017-09-28T20:13:18.225Z,17.30
2017-09-28T20:15:45.659Z,13.97
2017-09-28T20:18:13.137Z,11.20
2017-09-28T20:20:40.585Z,11.73
2017-09-28T20:23:07.999Z,13.67
2017-09-28T20:25:36.195Z,12.53
2017-09-28T20:28:03.621Z,13.60
2017-09-28T20:30:32.055Z,14.50
2017-09-28T20:32:59.487Z,13.20
2017-09-28T20:35:26.965Z,13.63
2017-09-28T20:37:54.399Z,13.00
2017-09-28T20:40:21.856Z,13.50
2017-09-28T20:42:49.347Z,13.57
2017-09-28T20:45:16.784Z,13.20
2017-09-28T20:47:44.462Z,13.93
2017-09-28T20:50:12.004Z,12.10
2017-09-28T20:52:39.448Z,12.90
2017-09-28T20:55:06.919Z,13.10
2017-09-28T20:57:34.383Z,12.67
2017-09-28T21:00:01.838Z,11.43
2017-09-28T21:02:29.301Z,12.57
2017-09-28T21:04:56.765Z,11.57
2017-09-28T21:07:24.234Z,12.13
2017-09-28T21:09:51.641Z,10.27
2017-09-28T21:12:19.597Z,13.03
2017-09-28T21:14:47.816Z,14.43
2017-09-28T21:17:15.447Z,11.67
2017-09-28T21:19:43.030Z,12.53
2017-09-28T21:22:10.480Z,13.90
2017-09-28T21:24:37.923Z,12.23
2017-09-28T21:27:05.357Z,11.57
2017-09-28T21:29:32.825Z,11.60
2017-09-28T21:32:00.240Z,11.80
2017-09-28T21:34:27.713Z,13.37
2017-09-28T21:36:55.157Z,12.20
2017-09-28T21:39:22.585Z,12.30
2017-09-28T21:41:50.120Z,12.13
2017-09-28T21:44:17.593Z,13.20
2017-09-28T21:46:45.109Z,13.90
2017-09-28T21:49:12.820Z,19.33
2017-09-28T21:51:40.447Z,26.63
2017-09-28T21:54:07.925Z,24.87
2017-09-28T21:56:35.444Z,13.43
2017-09-28T21:59:02.935Z,17.07
2017-09-28T22:01:30.364Z,15.07
2017-09-28T22:03:57.853Z,12.97
2017-09-28T22:06:25.312Z,13.17
2017-09-28T22:08:52.951Z,14.10
2017-09-28T22:11:20.445Z,14.17
2017-09-28T22:13:47.911Z,12.70
2017-09-28T22:16:15.357Z,12.30
2017-09-28T22:18:42.786Z,13.87
2017-09-28T22:21:10.345Z,13.60
2017-09-28T22:23:37.773Z,14.00
2017-09-28T22:26:05.197Z,13.70
2017-09-28T22:28:32.645Z,12.47
2017-09-28T22:31:00.071Z,15.50
2017-09-28T22:33:27.521Z,12.23
2017-09-28T22:35:54.995Z,12.53
2017-09-28T22:38:22.464Z,12.00
2017-09-28T22:40:49.943Z,14.00
2017-09-28T22:43:17.374Z,14.50
2017-09-28T22:45:44.808Z,13.27
2017-09-28T22:48:12.275Z,13.20
2017-09-28T22:50:39.703Z,12.90
2017-09-28T22:53:07.164Z,12.23
2017-09-28T22:55:34.603Z,12.70
2017-09-28T22:58:03.121Z,11.70
2017-09-28T23:00:30.573Z,10.77
2017-09-28T23:02:58.212Z,13.70
2017-09-28T23:05:25.671Z,13.47
2017-09-28T23:07:53.253Z,11.50
2017-09-28T23:10:21.024Z,12.60
2017-09-28T23:12:48.440Z,12.90
2017-09-28T23:15:15.870Z,13.67
2017-09-28T23:17:43.448Z,16.30
2017-09-28T23:20:11.019Z,12.67
2017-09-28T23:22:38.600Z,12.43
2017-09-28T23:25:06.049Z,12.40
2017-09-28T23:27:33.481Z,12.30
2017-09-28T23:30:00.980Z,12.90
2017-09-28T23:32:28.414Z,14.23
2017-09-28T23:34:55.847Z,13.83
2017-09-28T23:37:23.267Z,12.57
2017-09-28T23:39:50.786Z,12.97
2017-09-28T23:42:18.248Z,11.37
2017-09-28T23:44:45.700Z,13.80
2017-09-28T23:47:13.156Z,12.73
2017-09-28T23:49:40.579Z,11.47
2017-09-28T23:52:08.010Z,13.03
2017-09-28T23:54:35.441Z,12.03
2017-09-28T23:57:02.890Z,12.77
2017-09-28T23:59:30.312Z,13.43
